sensor_id;sensor_type;location;lat;lon;timestamp;P1;durP1;ratioP1;P2;durP2;ratioP2
36725;SDS011;44936;52.086;5.150;2023-07-16T00:01:01;1.13;;;0.52;;
36725;SDS011;44936;52.086;5.150;2023-07-16T00:03:26;1.08;;;0.63;;
36725;SDS011;44936;52.086;5.150;2023-07-16T00:05:51;2.53;;;0.50;;
36725;SDS011;44936;52.086;5.150;2023-07-16T00:08:17;1.40;;;0.70;;
36725;SDS011;44936;52.086;5.150;2023-07-16T00:10:42;4.22;;;0.73;;
36725;SDS011;44936;52.086;5.150;2023-07-16T00:13:08;3.83;;;0.60;;
36725;SDS011;44936;52.086;5.150;2023-07-16T00:15:33;1.75;;;0.80;;
36725;SDS011;44936;52.086;5.150;2023-07-16T00:17:58;4.20;;;0.93;;
36725;SDS011;44936;52.086;5.150;2023-07-16T00:20:24;1.40;;;0.63;;
36725;SDS011;44936;52.086;5.150;2023-07-16T00:22:50;3.88;;;0.80;;
36725;SDS011;44936;52.086;5.150;2023-07-16T00:25:15;1.77;;;0.63;;
36725;SDS011;44936;52.086;5.150;2023-07-16T00:27:40;2.13;;;0.80;;
36725;SDS011;44936;52.086;5.150;2023-07-16T00:30:07;1.98;;;1.00;;
36725;SDS011;44936;52.086;5.150;2023-07-16T00:32:33;2.97;;;0.63;;
36725;SDS011;44936;52.086;5.150;2023-07-16T00:34:58;3.35;;;0.80;;
36725;SDS011;44936;52.086;5.150;2023-07-16T00:37:23;1.65;;;0.75;;
36725;SDS011;44936;52.086;5.150;2023-07-16T00:39:49;2.65;;;1.20;;
36725;SDS011;44936;52.086;5.150;2023-07-16T00:42:14;2.40;;;0.98;;
36725;SDS011;44936;52.086;5.150;2023-07-16T00:44:40;1.20;;;0.95;;
36725;SDS011;44936;52.086;5.150;2023-07-16T00:47:06;2.05;;;0.70;;
36725;SDS011;44936;52.086;5.150;2023-07-16T00:49:31;2.30;;;0.93;;
36725;SDS011;44936;52.086;5.150;2023-07-16T00:51:57;2.78;;;0.63;;
36725;SDS011;44936;52.086;5.150;2023-07-16T00:54:23;4.15;;;1.20;;
36725;SDS011;44936;52.086;5.150;2023-07-16T00:56:49;5.25;;;0.85;;
36725;SDS011;44936;52.086;5.150;2023-07-16T00:59:15;1.65;;;0.98;;
36725;SDS011;44936;52.086;5.150;2023-07-16T01:01:41;3.65;;;0.90;;
36725;SDS011;44936;52.086;5.150;2023-07-16T01:04:06;1.35;;;0.90;;
36725;SDS011;44936;52.086;5.150;2023-07-16T01:06:35;1.75;;;0.70;;
36725;SDS011;44936;52.086;5.150;2023-07-16T01:09:06;1.00;;;0.65;;
36725;SDS011;44936;52.086;5.150;2023-07-16T01:11:36;1.67;;;0.80;;
36725;SDS011;44936;52.086;5.150;2023-07-16T01:14:03;5.95;;;1.48;;
36725;SDS011;44936;52.086;5.150;2023-07-16T01:16:31;1.45;;;0.70;;
36725;SDS011;44936;52.086;5.150;2023-07-16T01:18:57;2.08;;;1.00;;
36725;SDS011;44936;52.086;5.150;2023-07-16T01:21:23;2.72;;;0.90;;
36725;SDS011;44936;52.086;5.150;2023-07-16T01:29:41;3.42;;;1.13;;
36725;SDS011;44936;52.086;5.150;2023-07-16T01:32:14;2.28;;;1.10;;
36725;SDS011;44936;52.086;5.150;2023-07-16T01:34:41;5.70;;;0.90;;
36725;SDS011;44936;52.086;5.150;2023-07-16T01:37:08;4.45;;;1.10;;
36725;SDS011;44936;52.086;5.150;2023-07-16T01:39:34;3.30;;;1.00;;
36725;SDS011;44936;52.086;5.150;2023-07-16T01:42:00;3.72;;;1.08;;
36725;SDS011;44936;52.086;5.150;2023-07-16T01:44:26;3.08;;;1.08;;
36725;SDS011;44936;52.086;5.150;2023-07-16T01:49:55;2.17;;;1.20;;
36725;SDS011;44936;52.086;5.150;2023-07-16T01:52:21;4.32;;;1.20;;
36725;SDS011;44936;52.086;5.150;2023-07-16T01:54:47;2.63;;;0.80;;
36725;SDS011;44936;52.086;5.150;2023-07-16T01:57:12;5.25;;;1.15;;
36725;SDS011;44936;52.086;5.150;2023-07-16T01:59:38;2.30;;;1.23;;
36725;SDS011;44936;52.086;5.150;2023-07-16T02:02:03;6.13;;;1.38;;
36725;SDS011;44936;52.086;5.150;2023-07-16T02:04:29;6.07;;;1.23;;
36725;SDS011;44936;52.086;5.150;2023-07-16T02:06:54;3.15;;;1.02;;
36725;SDS011;44936;52.086;5.150;2023-07-16T02:09:20;3.10;;;1.40;;
36725;SDS011;44936;52.086;5.150;2023-07-16T02:11:46;3.13;;;1.13;;
36725;SDS011;44936;52.086;5.150;2023-07-16T02:14:11;4.15;;;1.00;;
36725;SDS011;44936;52.086;5.150;2023-07-16T02:16:38;3.17;;;0.98;;
36725;SDS011;44936;52.086;5.150;2023-07-16T02:19:03;5.70;;;1.15;;
36725;SDS011;44936;52.086;5.150;2023-07-16T02:21:28;2.22;;;1.20;;
36725;SDS011;44936;52.086;5.150;2023-07-16T02:23:54;2.28;;;1.05;;
36725;SDS011;44936;52.086;5.150;2023-07-16T02:26:19;8.70;;;2.13;;
36725;SDS011;44936;52.086;5.150;2023-07-16T02:28:44;4.03;;;1.40;;
36725;SDS011;44936;52.086;5.150;2023-07-16T02:31:10;4.45;;;1.83;;
36725;SDS011;44936;52.086;5.150;2023-07-16T02:33:35;4.15;;;1.23;;
36725;SDS011;44936;52.086;5.150;2023-07-16T02:36:00;4.47;;;1.35;;
36725;SDS011;44936;52.086;5.150;2023-07-16T02:38:27;2.85;;;1.08;;
36725;SDS011;44936;52.086;5.150;2023-07-16T02:40:53;4.75;;;1.30;;
36725;SDS011;44936;52.086;5.150;2023-07-16T02:43:18;5.85;;;1.50;;
36725;SDS011;44936;52.086;5.150;2023-07-16T02:45:43;3.33;;;1.40;;
36725;SDS011;44936;52.086;5.150;2023-07-16T02:48:09;2.22;;;1.00;;
36725;SDS011;44936;52.086;5.150;2023-07-16T02:50:34;3.65;;;1.27;;
36725;SDS011;44936;52.086;5.150;2023-07-16T02:53:01;3.88;;;1.27;;
36725;SDS011;44936;52.086;5.150;2023-07-16T02:55:27;3.03;;;1.30;;
36725;SDS011;44936;52.086;5.150;2023-07-16T02:57:52;3.72;;;1.35;;
36725;SDS011;44936;52.086;5.150;2023-07-16T03:00:17;5.72;;;2.00;;
36725;SDS011;44936;52.086;5.150;2023-07-16T03:02:43;5.95;;;2.03;;
36725;SDS011;44936;52.086;5.150;2023-07-16T03:05:08;2.83;;;1.20;;
36725;SDS011;44936;52.086;5.150;2023-07-16T03:07:34;2.85;;;1.30;;
36725;SDS011;44936;52.086;5.150;2023-07-16T03:09:59;4.55;;;1.10;;
36725;SDS011;44936;52.086;5.150;2023-07-16T03:12:25;5.72;;;1.48;;
36725;SDS011;44936;52.086;5.150;2023-07-16T03:14:50;2.30;;;1.20;;
36725;SDS011;44936;52.086;5.150;2023-07-16T03:17:19;2.33;;;1.20;;
36725;SDS011;44936;52.086;5.150;2023-07-16T03:19:44;4.55;;;1.20;;
36725;SDS011;44936;52.086;5.150;2023-07-16T03:22:09;4.43;;;1.42;;
36725;SDS011;44936;52.086;5.150;2023-07-16T03:24:35;4.85;;;1.15;;
36725;SDS011;44936;52.086;5.150;2023-07-16T03:27:00;3.53;;;1.70;;
36725;SDS011;44936;52.086;5.150;2023-07-16T03:29:25;1.90;;;1.10;;
36725;SDS011;44936;52.086;5.150;2023-07-16T03:31:51;8.25;;;1.50;;
36725;SDS011;44936;52.086;5.150;2023-07-16T03:34:16;4.03;;;1.25;;
36725;SDS011;44936;52.086;5.150;2023-07-16T03:36:41;3.38;;;1.30;;
36725;SDS011;44936;52.086;5.150;2023-07-16T03:39:07;3.67;;;1.10;;
36725;SDS011;44936;52.086;5.150;2023-07-16T03:41:32;4.30;;;1.10;;
36725;SDS011;44936;52.086;5.150;2023-07-16T03:43:57;3.85;;;1.30;;
36725;SDS011;44936;52.086;5.150;2023-07-16T03:46:23;4.03;;;1.40;;
36725;SDS011;44936;52.086;5.150;2023-07-16T03:48:48;3.30;;;1.45;;
36725;SDS011;44936;52.086;5.150;2023-07-16T03:51:13;4.68;;;1.75;;
36725;SDS011;44936;52.086;5.150;2023-07-16T03:53:39;5.00;;;1.40;;
36725;SDS011;44936;52.086;5.150;2023-07-16T03:56:04;3.92;;;1.42;;
36725;SDS011;44936;52.086;5.150;2023-07-16T03:58:30;3.65;;;1.42;;
36725;SDS011;44936;52.086;5.150;2023-07-16T04:00:55;6.70;;;1.95;;
36725;SDS011;44936;52.086;5.150;2023-07-16T04:03:20;5.95;;;1.73;;
36725;SDS011;44936;52.086;5.150;2023-07-16T04:05:46;5.25;;;1.50;;
36725;SDS011;44936;52.086;5.150;2023-07-16T04:08:12;5.10;;;1.38;;
36725;SDS011;44936;52.086;5.150;2023-07-16T04:10:37;4.13;;;1.45;;
36725;SDS011;44936;52.086;5.150;2023-07-16T04:13:02;4.90;;;1.52;;
36725;SDS011;44936;52.086;5.150;2023-07-16T04:15:28;4.65;;;1.75;;
36725;SDS011;44936;52.086;5.150;2023-07-16T04:17:53;3.47;;;1.73;;
36725;SDS011;44936;52.086;5.150;2023-07-16T04:20:19;2.42;;;1.08;;
36725;SDS011;44936;52.086;5.150;2023-07-16T04:22:44;4.78;;;1.30;;
36725;SDS011;44936;52.086;5.150;2023-07-16T04:25:09;4.68;;;1.30;;
36725;SDS011;44936;52.086;5.150;2023-07-16T04:27:35;4.05;;;1.38;;
36725;SDS011;44936;52.086;5.150;2023-07-16T04:30:01;4.15;;;1.52;;
36725;SDS011;44936;52.086;5.150;2023-07-16T04:32:26;2.35;;;1.30;;
36725;SDS011;44936;52.086;5.150;2023-07-16T04:34:52;3.90;;;1.67;;
36725;SDS011;44936;52.086;5.150;2023-07-16T04:37:17;2.10;;;1.10;;
36725;SDS011;44936;52.086;5.150;2023-07-16T04:39:42;3.63;;;1.55;;
36725;SDS011;44936;52.086;5.150;2023-07-16T04:42:08;4.85;;;1.50;;
36725;SDS011;44936;52.086;5.150;2023-07-16T04:44:33;4.05;;;1.35;;
36725;SDS011;44936;52.086;5.150;2023-07-16T04:46:58;2.70;;;1.50;;
36725;SDS011;44936;52.086;5.150;2023-07-16T04:49:23;4.97;;;1.73;;
36725;SDS011;44936;52.086;5.150;2023-07-16T04:51:49;6.15;;;1.50;;
36725;SDS011;44936;52.086;5.150;2023-07-16T04:54:14;4.20;;;1.42;;
36725;SDS011;44936;52.086;5.150;2023-07-16T04:56:40;2.78;;;1.73;;
36725;SDS011;44936;52.086;5.150;2023-07-16T04:59:05;3.10;;;1.38;;
36725;SDS011;44936;52.086;5.150;2023-07-16T05:01:30;4.20;;;1.30;;
36725;SDS011;44936;52.086;5.150;2023-07-16T05:03:57;4.75;;;1.42;;
36725;SDS011;44936;52.086;5.150;2023-07-16T05:06:22;3.35;;;1.50;;
36725;SDS011;44936;52.086;5.150;2023-07-16T05:08:48;7.25;;;2.42;;
36725;SDS011;44936;52.086;5.150;2023-07-16T05:11:13;2.17;;;1.38;;
36725;SDS011;44936;52.086;5.150;2023-07-16T05:13:38;3.40;;;1.40;;
36725;SDS011;44936;52.086;5.150;2023-07-16T05:16:04;2.58;;;1.33;;
36725;SDS011;44936;52.086;5.150;2023-07-16T05:18:29;4.45;;;1.85;;
36725;SDS011;44936;52.086;5.150;2023-07-16T05:20:55;4.82;;;1.65;;
36725;SDS011;44936;52.086;5.150;2023-07-16T05:23:20;8.00;;;2.40;;
36725;SDS011;44936;52.086;5.150;2023-07-16T05:25:46;4.30;;;1.48;;
36725;SDS011;44936;52.086;5.150;2023-07-16T05:28:12;4.63;;;1.95;;
36725;SDS011;44936;52.086;5.150;2023-07-16T05:30:38;7.82;;;2.10;;
36725;SDS011;44936;52.086;5.150;2023-07-16T05:33:03;5.97;;;1.40;;
36725;SDS011;44936;52.086;5.150;2023-07-16T05:35:29;4.75;;;1.83;;
36725;SDS011;44936;52.086;5.150;2023-07-16T05:37:54;3.55;;;1.58;;
36725;SDS011;44936;52.086;5.150;2023-07-16T05:40:19;5.00;;;1.77;;
36725;SDS011;44936;52.086;5.150;2023-07-16T05:42:45;8.05;;;1.58;;
36725;SDS011;44936;52.086;5.150;2023-07-16T05:45:10;5.47;;;1.90;;
36725;SDS011;44936;52.086;5.150;2023-07-16T05:47:35;4.20;;;1.40;;
36725;SDS011;44936;52.086;5.150;2023-07-16T05:50:01;3.75;;;1.63;;
36725;SDS011;44936;52.086;5.150;2023-07-16T05:52:26;6.70;;;2.35;;
36725;SDS011;44936;52.086;5.150;2023-07-16T05:54:52;4.22;;;1.73;;
36725;SDS011;44936;52.086;5.150;2023-07-16T05:57:17;5.47;;;2.17;;
36725;SDS011;44936;52.086;5.150;2023-07-16T05:59:42;5.22;;;1.98;;
36725;SDS011;44936;52.086;5.150;2023-07-16T06:02:08;6.47;;;2.17;;
36725;SDS011;44936;52.086;5.150;2023-07-16T06:04:33;6.78;;;2.47;;
36725;SDS011;44936;52.086;5.150;2023-07-16T06:06:59;7.15;;;1.80;;
36725;SDS011;44936;52.086;5.150;2023-07-16T06:09:24;5.57;;;1.85;;
36725;SDS011;44936;52.086;5.150;2023-07-16T06:11:49;4.75;;;1.35;;
36725;SDS011;44936;52.086;5.150;2023-07-16T06:14:15;3.17;;;1.33;;
36725;SDS011;44936;52.086;5.150;2023-07-16T06:16:41;4.70;;;1.65;;
36725;SDS011;44936;52.086;5.150;2023-07-16T06:19:07;4.78;;;1.70;;
36725;SDS011;44936;52.086;5.150;2023-07-16T06:21:32;5.15;;;1.73;;
36725;SDS011;44936;52.086;5.150;2023-07-16T06:23:57;5.00;;;1.42;;
36725;SDS011;44936;52.086;5.150;2023-07-16T06:26:23;4.60;;;1.60;;
36725;SDS011;44936;52.086;5.150;2023-07-16T06:28:48;4.90;;;1.85;;
36725;SDS011;44936;52.086;5.150;2023-07-16T06:31:15;6.03;;;2.30;;
36725;SDS011;44936;52.086;5.150;2023-07-16T06:33:42;5.93;;;1.67;;
36725;SDS011;44936;52.086;5.150;2023-07-16T06:36:08;4.07;;;1.60;;
36725;SDS011;44936;52.086;5.150;2023-07-16T06:38:33;4.18;;;1.52;;
36725;SDS011;44936;52.086;5.150;2023-07-16T06:40:59;6.60;;;1.63;;
36725;SDS011;44936;52.086;5.150;2023-07-16T06:43:24;3.45;;;1.60;;
36725;SDS011;44936;52.086;5.150;2023-07-16T06:45:50;4.20;;;2.00;;
36725;SDS011;44936;52.086;5.150;2023-07-16T06:48:18;4.32;;;1.70;;
36725;SDS011;44936;52.086;5.150;2023-07-16T06:50:43;7.45;;;1.95;;
36725;SDS011;44936;52.086;5.150;2023-07-16T06:53:09;4.38;;;2.15;;
36725;SDS011;44936;52.086;5.150;2023-07-16T06:55:34;4.10;;;1.92;;
36725;SDS011;44936;52.086;5.150;2023-07-16T06:58:00;8.82;;;3.22;;
36725;SDS011;44936;52.086;5.150;2023-07-16T07:00:26;4.65;;;1.73;;
36725;SDS011;44936;52.086;5.150;2023-07-16T07:02:51;5.50;;;1.90;;
36725;SDS011;44936;52.086;5.150;2023-07-16T07:05:16;4.53;;;1.90;;
36725;SDS011;44936;52.086;5.150;2023-07-16T07:07:42;3.28;;;1.42;;
36725;SDS011;44936;52.086;5.150;2023-07-16T07:10:10;6.80;;;1.85;;
36725;SDS011;44936;52.086;5.150;2023-07-16T07:12:36;4.25;;;1.60;;
36725;SDS011;44936;52.086;5.150;2023-07-16T07:15:04;4.30;;;1.63;;
36725;SDS011;44936;52.086;5.150;2023-07-16T07:17:30;6.82;;;1.65;;
36725;SDS011;44936;52.086;5.150;2023-07-16T07:19:56;5.10;;;1.83;;
36725;SDS011;44936;52.086;5.150;2023-07-16T07:22:21;6.35;;;2.33;;
36725;SDS011;44936;52.086;5.150;2023-07-16T07:24:46;5.95;;;2.33;;
36725;SDS011;44936;52.086;5.150;2023-07-16T07:27:12;4.03;;;1.73;;
36725;SDS011;44936;52.086;5.150;2023-07-16T07:29:37;8.80;;;3.03;;
36725;SDS011;44936;52.086;5.150;2023-07-16T07:32:03;3.70;;;1.50;;
36725;SDS011;44936;52.086;5.150;2023-07-16T07:34:28;3.15;;;1.80;;
36725;SDS011;44936;52.086;5.150;2023-07-16T07:36:54;7.35;;;2.30;;
36725;SDS011;44936;52.086;5.150;2023-07-16T07:39:19;5.03;;;1.63;;
36725;SDS011;44936;52.086;5.150;2023-07-16T07:41:44;5.05;;;1.70;;
36725;SDS011;44936;52.086;5.150;2023-07-16T07:44:10;6.05;;;2.60;;
36725;SDS011;44936;52.086;5.150;2023-07-16T07:46:35;7.25;;;2.15;;
36725;SDS011;44936;52.086;5.150;2023-07-16T07:49:00;3.75;;;1.48;;
36725;SDS011;44936;52.086;5.150;2023-07-16T07:51:25;6.53;;;2.25;;
36725;SDS011;44936;52.086;5.150;2023-07-16T07:53:51;3.40;;;1.40;;
36725;SDS011;44936;52.086;5.150;2023-07-16T07:56:16;9.35;;;2.45;;
36725;SDS011;44936;52.086;5.150;2023-07-16T07:58:42;7.07;;;1.73;;
36725;SDS011;44936;52.086;5.150;2023-07-16T08:01:07;4.88;;;1.98;;
36725;SDS011;44936;52.086;5.150;2023-07-16T08:03:33;3.13;;;1.75;;
36725;SDS011;44936;52.086;5.150;2023-07-16T08:05:59;3.65;;;1.90;;
36725;SDS011;44936;52.086;5.150;2023-07-16T08:08:24;3.15;;;1.73;;
36725;SDS011;44936;52.086;5.150;2023-07-16T08:10:49;4.47;;;1.60;;
36725;SDS011;44936;52.086;5.150;2023-07-16T08:13:15;5.28;;;1.70;;
36725;SDS011;44936;52.086;5.150;2023-07-16T08:15:40;4.72;;;1.92;;
36725;SDS011;44936;52.086;5.150;2023-07-16T08:18:05;5.65;;;1.88;;
36725;SDS011;44936;52.086;5.150;2023-07-16T08:20:31;4.80;;;1.90;;
36725;SDS011;44936;52.086;5.150;2023-07-16T08:22:56;5.85;;;1.90;;
36725;SDS011;44936;52.086;5.150;2023-07-16T08:25:22;5.32;;;1.80;;
36725;SDS011;44936;52.086;5.150;2023-07-16T08:27:47;6.10;;;2.10;;
36725;SDS011;44936;52.086;5.150;2023-07-16T08:30:13;6.78;;;1.90;;
36725;SDS011;44936;52.086;5.150;2023-07-16T08:32:39;6.85;;;2.30;;
36725;SDS011;44936;52.086;5.150;2023-07-16T08:35:05;6.47;;;1.90;;
36725;SDS011;44936;52.086;5.150;2023-07-16T08:37:30;6.57;;;1.98;;
36725;SDS011;44936;52.086;5.150;2023-07-16T08:39:56;2.75;;;1.50;;
36725;SDS011;44936;52.086;5.150;2023-07-16T08:42:21;6.47;;;1.95;;
36725;SDS011;44936;52.086;5.150;2023-07-16T08:44:50;4.57;;;1.90;;
36725;SDS011;44936;52.086;5.150;2023-07-16T08:47:16;5.85;;;1.92;;
36725;SDS011;44936;52.086;5.150;2023-07-16T08:49:43;3.80;;;1.50;;
36725;SDS011;44936;52.086;5.150;2023-07-16T08:52:19;3.90;;;1.95;;
36725;SDS011;44936;52.086;5.150;2023-07-16T08:54:45;3.72;;;1.58;;
36725;SDS011;44936;52.086;5.150;2023-07-16T08:57:10;4.05;;;1.80;;
36725;SDS011;44936;52.086;5.150;2023-07-16T08:59:36;4.28;;;2.22;;
36725;SDS011;44936;52.086;5.150;2023-07-16T09:02:01;4.63;;;2.05;;
36725;SDS011;44936;52.086;5.150;2023-07-16T09:04:27;6.80;;;1.92;;
36725;SDS011;44936;52.086;5.150;2023-07-16T09:06:54;4.15;;;2.00;;
36725;SDS011;44936;52.086;5.150;2023-07-16T09:09:21;8.30;;;2.30;;
36725;SDS011;44936;52.086;5.150;2023-07-16T09:11:47;5.00;;;1.80;;
36725;SDS011;44936;52.086;5.150;2023-07-16T09:14:19;3.72;;;1.88;;
36725;SDS011;44936;52.086;5.150;2023-07-16T09:16:52;8.48;;;2.10;;
36725;SDS011;44936;52.086;5.150;2023-07-16T09:19:18;5.45;;;1.70;;
36725;SDS011;44936;52.086;5.150;2023-07-16T09:21:47;6.65;;;1.80;;
36725;SDS011;44936;52.086;5.150;2023-07-16T09:24:13;3.95;;;2.00;;
36725;SDS011;44936;52.086;5.150;2023-07-16T09:26:39;8.95;;;1.73;;
36725;SDS011;44936;52.086;5.150;2023-07-16T09:29:15;6.22;;;2.00;;
36725;SDS011;44936;52.086;5.150;2023-07-16T09:34:36;6.05;;;1.60;;
36725;SDS011;44936;52.086;5.150;2023-07-16T09:37:01;3.55;;;1.65;;
36725;SDS011;44936;52.086;5.150;2023-07-16T09:39:27;4.18;;;1.65;;
36725;SDS011;44936;52.086;5.150;2023-07-16T09:41:53;4.15;;;1.90;;
36725;SDS011;44936;52.086;5.150;2023-07-16T09:44:19;7.22;;;1.60;;
36725;SDS011;44936;52.086;5.150;2023-07-16T09:46:45;5.82;;;1.80;;
36725;SDS011;44936;52.086;5.150;2023-07-16T09:49:11;7.60;;;2.10;;
36725;SDS011;44936;52.086;5.150;2023-07-16T09:51:38;6.13;;;2.03;;
36725;SDS011;44936;52.086;5.150;2023-07-16T09:54:04;5.80;;;2.30;;
36725;SDS011;44936;52.086;5.150;2023-07-16T09:56:35;5.00;;;1.50;;
36725;SDS011;44936;52.086;5.150;2023-07-16T09:59:02;2.00;;;1.30;;
36725;SDS011;44936;52.086;5.150;2023-07-16T10:01:32;3.85;;;1.77;;
36725;SDS011;44936;52.086;5.150;2023-07-16T10:04:09;5.80;;;2.13;;
36725;SDS011;44936;52.086;5.150;2023-07-16T10:06:36;5.07;;;1.83;;
36725;SDS011;44936;52.086;5.150;2023-07-16T10:09:01;4.32;;;1.60;;
36725;SDS011;44936;52.086;5.150;2023-07-16T10:11:27;7.47;;;1.70;;
36725;SDS011;44936;52.086;5.150;2023-07-16T10:13:52;6.30;;;1.95;;
36725;SDS011;44936;52.086;5.150;2023-07-16T10:16:21;6.20;;;1.80;;
36725;SDS011;44936;52.086;5.150;2023-07-16T10:18:51;3.63;;;1.63;;
36725;SDS011;44936;52.086;5.150;2023-07-16T10:21:22;2.97;;;1.75;;
36725;SDS011;44936;52.086;5.150;2023-07-16T10:23:56;8.10;;;1.60;;
36725;SDS011;44936;52.086;5.150;2023-07-16T10:26:26;4.25;;;2.42;;
36725;SDS011;44936;52.086;5.150;2023-07-16T10:28:55;7.20;;;2.25;;
36725;SDS011;44936;52.086;5.150;2023-07-16T10:31:21;1.92;;;1.05;;
36725;SDS011;44936;52.086;5.150;2023-07-16T10:33:58;6.38;;;1.50;;
36725;SDS011;44936;52.086;5.150;2023-07-16T10:36:25;6.88;;;2.03;;
36725;SDS011;44936;52.086;5.150;2023-07-16T10:38:50;14.07;;;1.70;;
36725;SDS011;44936;52.086;5.150;2023-07-16T10:41:16;8.02;;;1.63;;
36725;SDS011;44936;52.086;5.150;2023-07-16T10:43:43;4.78;;;1.67;;
36725;SDS011;44936;52.086;5.150;2023-07-16T10:46:09;4.00;;;1.45;;
36725;SDS011;44936;52.086;5.150;2023-07-16T10:48:34;3.78;;;1.48;;
36725;SDS011;44936;52.086;5.150;2023-07-16T10:51:00;3.45;;;1.60;;
36725;SDS011;44936;52.086;5.150;2023-07-16T10:53:25;4.82;;;2.08;;
36725;SDS011;44936;52.086;5.150;2023-07-16T10:55:50;3.03;;;1.40;;
36725;SDS011;44936;52.086;5.150;2023-07-16T10:58:16;2.88;;;1.17;;
36725;SDS011;44936;52.086;5.150;2023-07-16T11:00:41;3.75;;;1.27;;
36725;SDS011;44936;52.086;5.150;2023-07-16T11:03:07;3.17;;;1.58;;
36725;SDS011;44936;52.086;5.150;2023-07-16T11:05:34;2.53;;;1.35;;
36725;SDS011;44936;52.086;5.150;2023-07-16T11:08:00;3.65;;;1.23;;
36725;SDS011;44936;52.086;5.150;2023-07-16T11:10:27;2.28;;;1.10;;
36725;SDS011;44936;52.086;5.150;2023-07-16T11:12:54;1.92;;;1.27;;
36725;SDS011;44936;52.086;5.150;2023-07-16T11:15:35;2.50;;;1.00;;
36725;SDS011;44936;52.086;5.150;2023-07-16T11:18:01;3.45;;;1.63;;
36725;SDS011;44936;52.086;5.150;2023-07-16T11:20:27;2.83;;;1.33;;
36725;SDS011;44936;52.086;5.150;2023-07-16T11:22:57;3.30;;;1.27;;
36725;SDS011;44936;52.086;5.150;2023-07-16T11:25:24;3.13;;;1.08;;
36725;SDS011;44936;52.086;5.150;2023-07-16T11:27:49;4.85;;;1.42;;
36725;SDS011;44936;52.086;5.150;2023-07-16T11:30:24;4.70;;;1.25;;
36725;SDS011;44936;52.086;5.150;2023-07-16T11:32:51;2.47;;;1.23;;
36725;SDS011;44936;52.086;5.150;2023-07-16T11:35:18;2.33;;;1.38;;
36725;SDS011;44936;52.086;5.150;2023-07-16T11:37:45;3.00;;;1.30;;
36725;SDS011;44936;52.086;5.150;2023-07-16T11:40:14;3.42;;;1.15;;
36725;SDS011;44936;52.086;5.150;2023-07-16T11:42:41;2.55;;;0.82;;
36725;SDS011;44936;52.086;5.150;2023-07-16T11:47:43;5.47;;;1.25;;
36725;SDS011;44936;52.086;5.150;2023-07-16T11:50:09;1.77;;;0.60;;
36725;SDS011;44936;52.086;5.150;2023-07-16T11:52:34;2.53;;;0.80;;
36725;SDS011;44936;52.086;5.150;2023-07-16T11:55:00;1.75;;;0.70;;
36725;SDS011;44936;52.086;5.150;2023-07-16T11:57:25;4.80;;;0.95;;
36725;SDS011;44936;52.086;5.150;2023-07-16T11:59:51;3.05;;;0.90;;
36725;SDS011;44936;52.086;5.150;2023-07-16T12:02:16;2.38;;;0.95;;
36725;SDS011;44936;52.086;5.150;2023-07-16T12:04:42;2.78;;;0.65;;
36725;SDS011;44936;52.086;5.150;2023-07-16T12:07:08;2.63;;;0.70;;
36725;SDS011;44936;52.086;5.150;2023-07-16T12:09:34;1.80;;;0.73;;
36725;SDS011;44936;52.086;5.150;2023-07-16T12:11:59;3.25;;;0.85;;
36725;SDS011;44936;52.086;5.150;2023-07-16T12:14:25;2.97;;;0.70;;
36725;SDS011;44936;52.086;5.150;2023-07-16T12:16:51;2.42;;;0.60;;
36725;SDS011;44936;52.086;5.150;2023-07-16T12:19:17;1.70;;;0.93;;
36725;SDS011;44936;52.086;5.150;2023-07-16T12:21:42;2.78;;;0.88;;
36725;SDS011;44936;52.086;5.150;2023-07-16T12:24:08;1.23;;;0.50;;
36725;SDS011;44936;52.086;5.150;2023-07-16T12:26:33;2.47;;;0.70;;
36725;SDS011;44936;52.086;5.150;2023-07-16T12:28:59;2.38;;;0.75;;
36725;SDS011;44936;52.086;5.150;2023-07-16T12:31:27;0.68;;;0.30;;
36725;SDS011;44936;52.086;5.150;2023-07-16T12:33:53;3.78;;;0.85;;
36725;SDS011;44936;52.086;5.150;2023-07-16T12:36:18;2.25;;;0.75;;
36725;SDS011;44936;52.086;5.150;2023-07-16T12:38:44;2.38;;;0.85;;
36725;SDS011;44936;52.086;5.150;2023-07-16T12:41:09;2.65;;;1.02;;
36725;SDS011;44936;52.086;5.150;2023-07-16T12:43:35;3.50;;;0.75;;
36725;SDS011;44936;52.086;5.150;2023-07-16T12:46:01;1.90;;;0.50;;
36725;SDS011;44936;52.086;5.150;2023-07-16T12:48:27;1.33;;;0.80;;
36725;SDS011;44936;52.086;5.150;2023-07-16T12:50:53;4.03;;;0.85;;
36725;SDS011;44936;52.086;5.150;2023-07-16T12:53:19;3.42;;;0.93;;
36725;SDS011;44936;52.086;5.150;2023-07-16T12:55:44;0.52;;;0.40;;
36725;SDS011;44936;52.086;5.150;2023-07-16T12:58:10;2.75;;;0.75;;
36725;SDS011;44936;52.086;5.150;2023-07-16T13:00:35;0.88;;;0.50;;
36725;SDS011;44936;52.086;5.150;2023-07-16T13:03:00;0.85;;;0.43;;
36725;SDS011;44936;52.086;5.150;2023-07-16T13:05:26;5.72;;;0.70;;
36725;SDS011;44936;52.086;5.150;2023-07-16T13:07:52;0.95;;;0.52;;
36725;SDS011;44936;52.086;5.150;2023-07-16T13:10:17;0.55;;;0.30;;
36725;SDS011;44936;52.086;5.150;2023-07-16T13:12:43;0.40;;;0.40;;
36725;SDS011;44936;52.086;5.150;2023-07-16T13:15:09;1.15;;;0.38;;
36725;SDS011;44936;52.086;5.150;2023-07-16T13:17:34;0.68;;;0.38;;
36725;SDS011;44936;52.086;5.150;2023-07-16T13:20:00;3.88;;;0.50;;
36725;SDS011;44936;52.086;5.150;2023-07-16T13:22:25;0.60;;;0.40;;
36725;SDS011;44936;52.086;5.150;2023-07-16T13:24:50;1.15;;;0.30;;
36725;SDS011;44936;52.086;5.150;2023-07-16T13:27:19;1.23;;;0.32;;
36725;SDS011;44936;52.086;5.150;2023-07-16T13:29:45;1.95;;;0.50;;
36725;SDS011;44936;52.086;5.150;2023-07-16T13:32:11;3.03;;;0.63;;
36725;SDS011;44936;52.086;5.150;2023-07-16T13:34:37;5.25;;;0.68;;
36725;SDS011;44936;52.086;5.150;2023-07-16T13:37:03;2.75;;;0.55;;
36725;SDS011;44936;52.086;5.150;2023-07-16T13:39:28;3.40;;;0.60;;
36725;SDS011;44936;52.086;5.150;2023-07-16T13:41:53;2.28;;;0.43;;
36725;SDS011;44936;52.086;5.150;2023-07-16T13:44:19;2.30;;;0.80;;
36725;SDS011;44936;52.086;5.150;2023-07-16T13:46:44;0.85;;;0.50;;
36725;SDS011;44936;52.086;5.150;2023-07-16T13:49:09;2.20;;;0.55;;
36725;SDS011;44936;52.086;5.150;2023-07-16T13:51:35;0.88;;;0.30;;
36725;SDS011;44936;52.086;5.150;2023-07-16T13:54:00;3.20;;;0.50;;
36725;SDS011;44936;52.086;5.150;2023-07-16T13:56:26;1.45;;;0.40;;
36725;SDS011;44936;52.086;5.150;2023-07-16T13:58:51;1.50;;;0.30;;
36725;SDS011;44936;52.086;5.150;2023-07-16T14:01:18;0.88;;;0.30;;
36725;SDS011;44936;52.086;5.150;2023-07-16T14:03:44;0.82;;;0.20;;
36725;SDS011;44936;52.086;5.150;2023-07-16T14:06:09;1.90;;;0.47;;
36725;SDS011;44936;52.086;5.150;2023-07-16T14:08:35;4.95;;;0.80;;
36725;SDS011;44936;52.086;5.150;2023-07-16T14:11:01;0.88;;;0.40;;
36725;SDS011;44936;52.086;5.150;2023-07-16T14:13:27;2.33;;;0.73;;
36725;SDS011;44936;52.086;5.150;2023-07-16T14:15:53;0.38;;;0.30;;
36725;SDS011;44936;52.086;5.150;2023-07-16T14:18:18;2.80;;;0.70;;
36725;SDS011;44936;52.086;5.150;2023-07-16T14:20:44;5.25;;;0.57;;
36725;SDS011;44936;52.086;5.150;2023-07-16T14:23:09;1.98;;;0.43;;
36725;SDS011;44936;52.086;5.150;2023-07-16T14:25:35;1.65;;;0.20;;
36725;SDS011;44936;52.086;5.150;2023-07-16T14:28:00;2.60;;;0.30;;
36725;SDS011;44936;52.086;5.150;2023-07-16T14:30:25;3.60;;;0.47;;
36725;SDS011;44936;52.086;5.150;2023-07-16T14:32:51;0.43;;;0.30;;
36725;SDS011;44936;52.086;5.150;2023-07-16T14:35:16;1.55;;;0.40;;
36725;SDS011;44936;52.086;5.150;2023-07-16T14:37:42;0.32;;;0.32;;
36725;SDS011;44936;52.086;5.150;2023-07-16T14:40:07;4.28;;;0.47;;
36725;SDS011;44936;52.086;5.150;2023-07-16T14:42:34;1.95;;;0.52;;
36725;SDS011;44936;52.086;5.150;2023-07-16T14:45:00;1.63;;;0.50;;
36725;SDS011;44936;52.086;5.150;2023-07-16T14:47:25;2.53;;;0.50;;
36725;SDS011;44936;52.086;5.150;2023-07-16T14:49:50;1.80;;;0.28;;
36725;SDS011;44936;52.086;5.150;2023-07-16T14:52:16;1.08;;;0.98;;
36725;SDS011;44936;52.086;5.150;2023-07-16T14:54:41;2.05;;;0.40;;